Time;durP1;ratioP1;P1;durP2;ratioP2;P2;SDS_P1;SDS_P2;PMS_P1;PMS_P2;Temp;Humidity;BMP_temperature;BMP_pressure;BME280_temperature;BME280_humidity;BME280_pressure;Samples;Min_cycle;Max_cycle;Signal;HPM_P1;HPM_P2
2022/07/28 00:00:37;;;;;;;1.90;1.40;;;18.00;99.90;;;;;;5073190;28;20617;-73
2022/07/28 00:03:03;;;;;;;2.20;1.60;;;18.00;99.90;;;;;;5073219;28;20920;-73
2022/07/28 00:05:29;;;;;;;2.03;1.50;;;18.00;99.90;;;;;;5072820;28;20649;-73
2022/07/28 00:07:56;;;;;;;3.47;1.47;;;18.00;99.90;;;;;;5072855;28;21120;-73
2022/07/28 00:10:22;;;;;;;3.90;1.63;;;18.00;99.90;;;;;;5073205;28;20591;-73
2022/07/28 00:12:49;;;;;;;4.33;1.63;;;17.90;99.90;;;;;;5071430;28;20654;-73
2022/07/28 00:15:15;;;;;;;3.23;1.80;;;17.90;99.90;;;;;;5072791;28;20648;-73
2022/07/28 00:17:42;;;;;;;1.53;1.43;;;17.90;99.90;;;;;;5072758;28;20574;-73
2022/07/28 00:20:09;;;;;;;1.97;1.83;;;17.90;99.90;;;;;;5072858;28;20553;-73
2022/07/28 00:22:41;;;;;;;1.90;1.50;;;17.90;99.90;;;;;;5072826;28;20632;-73
2022/07/28 00:25:09;;;;;;;3.07;1.50;;;18.00;99.90;;;;;;5072959;28;20936;-73
2022/07/28 00:27:35;;;;;;;3.47;1.73;;;17.90;99.90;;;;;;5072741;28;20606;-73
2022/07/28 00:30:03;;;;;;;2.40;1.77;;;17.90;99.90;;;;;;5073121;28;20574;-73
2022/07/28 00:32:30;;;;;;;2.33;1.80;;;17.90;99.90;;;;;;5072951;28;20586;-73
2022/07/28 00:34:56;;;;;;;1.80;1.70;;;17.90;99.90;;;;;;5072611;28;21112;-73
2022/07/28 00:37:41;;;;;;;1.60;1.50;;;18.00;99.90;;;;;;5071658;28;20534;-73
2022/07/28 00:40:08;;;;;;;5.00;1.60;;;17.90;99.90;;;;;;5072800;28;21242;-73
2022/07/28 00:42:35;;;;;;;4.13;1.63;;;17.90;99.90;;;;;;5072770;28;20676;-73
2022/07/28 00:45:01;;;;;;;3.37;1.57;;;17.90;99.90;;;;;;5072444;28;20984;-73
2022/07/28 00:47:28;;;;;;;6.10;1.40;;;17.90;99.90;;;;;;5072680;28;20615;-73
2022/07/28 00:49:54;;;;;;;4.73;1.90;;;17.80;99.90;;;;;;5073599;28;20683;-73
2022/07/28 00:52:22;;;;;;;3.60;2.00;;;17.80;99.90;;;;;;5076396;28;20598;-73
2022/07/28 00:54:49;;;;;;;1.53;1.30;;;17.80;99.90;;;;;;5076547;28;20643;-73
2022/07/28 00:57:15;;;;;;;1.30;1.20;;;17.80;99.90;;;;;;5076346;28;20582;-73
2022/07/28 00:59:41;;;;;;;2.27;1.53;;;17.80;99.90;;;;;;5076060;28;20656;-73
2022/07/28 01:02:08;;;;;;;4.97;1.40;;;17.70;99.90;;;;;;5076475;28;20635;-76
2022/07/28 01:04:35;;;;;;;3.80;1.57;;;17.80;99.90;;;;;;5075900;28;21324;-76
2022/07/28 01:07:06;;;;;;;2.00;1.50;;;17.80;99.90;;;;;;5076450;28;20980;-76
2022/07/28 01:10:04;;;;;;;1.73;1.53;;;17.70;99.90;;;;;;5076131;28;20951;-76
2022/07/28 01:12:57;;;;;;;1.50;1.40;;;17.80;99.90;;;;;;5072908;28;20646;-76
2022/07/28 01:15:36;;;;;;;1.53;1.40;;;17.60;99.90;;;;;;5076209;28;20570;-76
2022/07/28 01:18:02;;;;;;;3.53;1.23;;;17.60;99.90;;;;;;5075792;28;20590;-76
2022/07/28 01:20:40;;;;;;;3.50;1.50;;;17.60;99.90;;;;;;5076040;28;20667;-76
2022/07/28 01:23:31;;;;;;;2.20;1.37;;;17.60;99.90;;;;;;5075991;28;20570;-76
2022/07/28 01:26:33;;;;;;;2.20;2.00;;;17.60;99.90;;;;;;5076082;28;20574;-76
2022/07/28 01:29:20;;;;;;;5.03;1.50;;;17.50;99.90;;;;;;5075899;28;21223;-75
2022/07/28 01:32:15;;;;;;;3.20;1.67;;;17.40;99.90;;;;;;5075848;28;21017;-75
2022/07/28 01:34:54;;;;;;;1.50;1.40;;;17.40;99.90;;;;;;5073375;28;20678;-76
2022/07/28 01:37:26;;;;;;;3.27;1.43;;;17.50;99.90;;;;;;5075793;28;20577;-76
2022/07/28 01:39:57;;;;;;;3.23;1.80;;;17.50;99.90;;;;;;5075752;28;21191;-75
2022/07/28 01:42:30;;;;;;;1.80;1.30;;;17.40;99.90;;;;;;5075776;28;20574;-76
2022/07/28 01:44:59;;;;;;;2.33;1.90;;;17.40;99.90;;;;;;5074159;28;20630;-76
2022/07/28 01:47:31;;;;;;;4.03;1.70;;;17.20;99.90;;;;;;5075676;28;20589;-76
2022/07/28 01:50:02;;;;;;;2.60;1.40;;;17.30;99.90;;;;;;5075659;28;20578;-76
2022/07/28 01:52:31;;;;;;;10.77;1.80;;;17.30;99.90;;;;;;5075338;28;20594;-76
2022/07/28 01:55:01;;;;;;;1.60;1.50;;;17.30;99.90;;;;;;5075698;28;20661;-76
2022/07/28 01:57:32;;;;;;;2.07;1.40;;;17.20;99.90;;;;;;5075284;28;20982;-76
2022/07/28 02:00:00;;;;;;;1.70;1.60;;;17.20;99.90;;;;;;5075583;28;20643;-75
2022/07/28 02:02:29;;;;;;;3.43;1.30;;;17.20;99.90;;;;;;5074643;28;20614;-75
2022/07/28 02:04:58;;;;;;;3.00;1.30;;;17.10;99.90;;;;;;5074953;28;21277;-76
2022/07/28 02:07:27;;;;;;;2.37;1.67;;;17.20;99.90;;;;;;5074929;28;20617;-76
2022/07/28 02:09:56;;;;;;;4.17;1.90;;;17.20;99.90;;;;;;5075043;28;20579;-76
2022/07/28 02:12:24;;;;;;;2.83;1.57;;;17.10;99.90;;;;;;5074912;28;21186;-75
2022/07/28 02:14:51;;;;;;;4.67;2.17;;;17.10;99.90;;;;;;5074774;28;21037;-75
2022/07/28 02:17:20;;;;;;;2.70;1.67;;;17.10;99.90;;;;;;5075174;28;20582;-75
2022/07/28 02:19:48;;;;;;;3.40;1.60;;;17.00;99.90;;;;;;5074931;28;20672;-76
2022/07/28 02:22:15;;;;;;;1.43;1.33;;;17.10;99.90;;;;;;5075191;28;20598;-75
2022/07/28 02:24:44;;;;;;;4.97;1.77;;;17.10;99.90;;;;;;5074637;28;20634;-75
2022/07/28 02:27:21;;;;;;;1.77;1.53;;;17.10;99.90;;;;;;5074799;28;20615;-75
2022/07/28 02:29:51;;;;;;;2.47;1.80;;;17.00;99.90;;;;;;5075013;28;20703;-75
2022/07/28 02:32:41;;;;;;;3.13;1.77;;;16.90;99.90;;;;;;5074411;28;20929;-75
2022/07/28 02:35:26;;;;;;;2.53;1.40;;;16.90;99.90;;;;;;5074489;28;21162;-75
2022/07/28 02:37:59;;;;;;;4.13;1.60;;;16.90;99.90;;;;;;5074683;28;20613;-75
2022/07/28 02:40:33;;;;;;;1.53;1.43;;;16.80;99.90;;;;;;5074475;28;20618;-75
2022/07/28 02:43:01;;;;;;;4.63;1.80;;;16.90;99.90;;;;;;5074742;28;20603;-75
2022/07/28 02:45:30;;;;;;;2.27;1.57;;;16.90;99.90;;;;;;5074197;28;20565;-75
2022/07/28 02:48:01;;;;;;;2.77;1.40;;;17.00;99.90;;;;;;5074923;28;20574;-75
2022/07/28 02:50:28;;;;;;;1.60;1.50;;;17.00;99.90;;;;;;5074163;28;20578;-75
2022/07/28 02:52:59;;;;;;;1.90;1.60;;;16.90;99.90;;;;;;5074426;28;20575;-75
2022/07/28 02:55:26;;;;;;;3.13;1.90;;;16.90;99.90;;;;;;5073902;28;20673;-75
2022/07/28 02:57:54;;;;;;;5.93;1.73;;;16.90;99.90;;;;;;5074250;28;20592;-75
2022/07/28 03:00:22;;;;;;;3.83;1.70;;;16.90;99.90;;;;;;5074269;28;21008;-75
2022/07/28 03:02:49;;;;;;;1.70;1.60;;;16.90;99.90;;;;;;5074231;28;20541;-76
2022/07/28 03:05:16;;;;;;;5.23;1.50;;;16.90;99.90;;;;;;5073369;28;20653;-76
2022/07/28 03:07:43;;;;;;;5.67;2.00;;;16.80;99.90;;;;;;5074054;28;20554;-75
2022/07/28 03:10:21;;;;;;;7.10;1.73;;;16.90;99.90;;;;;;5074153;28;20575;-76
2022/07/28 03:12:47;;;;;;;7.33;1.47;;;16.80;99.90;;;;;;5073547;28;20633;-76
2022/07/28 03:15:14;;;;;;;3.00;1.27;;;16.80;99.90;;;;;;5073745;28;20630;-76
2022/07/28 03:17:41;;;;;;;2.20;1.50;;;16.80;99.90;;;;;;5073597;28;21162;-75
2022/07/28 03:20:08;;;;;;;1.83;1.70;;;16.80;99.90;;;;;;5073882;28;20644;-75
2022/07/28 03:22:35;;;;;;;1.90;1.43;;;16.80;99.90;;;;;;5073802;28;20546;-75
2022/07/28 03:25:06;;;;;;;2.40;1.50;;;16.80;99.90;;;;;;5073427;28;20993;-75
2022/07/28 03:27:42;;;;;;;3.27;1.60;;;16.80;99.90;;;;;;5073674;28;20648;-76
2022/07/28 03:30:13;;;;;;;6.13;1.60;;;16.70;99.90;;;;;;5073407;28;20913;-75
2022/07/28 03:32:52;;;;;;;3.40;1.73;;;16.70;99.90;;;;;;5073675;28;20676;-75
2022/07/28 03:35:20;;;;;;;3.33;1.60;;;16.70;99.90;;;;;;5072287;28;20643;-76
2022/07/28 03:38:21;;;;;;;2.83;1.70;;;16.60;99.90;;;;;;5073560;28;20579;-76
2022/07/28 03:40:48;;;;;;;8.73;1.50;;;16.50;99.90;;;;;;5060787;28;20643;-75
2022/07/28 03:43:20;;;;;;;2.20;1.87;;;16.60;99.90;;;;;;5073129;28;20970;-75
2022/07/28 03:45:47;;;;;;;5.63;1.83;;;16.60;99.90;;;;;;5073439;28;20891;-75
2022/07/28 03:48:14;;;;;;;3.60;1.37;;;16.50;99.90;;;;;;5073274;28;20626;-75
2022/07/28 03:50:40;;;;;;;1.93;1.70;;;16.50;99.90;;;;;;5072007;28;20600;-75
2022/07/28 03:53:27;;;;;;;1.90;1.60;;;16.50;99.90;;;;;;5073198;28;20957;-75
2022/07/28 03:55:54;;;;;;;7.53;2.60;;;16.50;99.90;;;;;;5073242;28;20588;-74
2022/07/28 03:58:22;;;;;;;2.70;1.73;;;16.50;99.90;;;;;;5072988;28;20575;-75
2022/07/28 04:00:50;;;;;;;3.20;1.70;;;16.50;99.90;;;;;;5072853;28;20635;-75
2022/07/28 04:03:17;;;;;;;2.23;1.70;;;16.40;99.90;;;;;;5071936;28;20545;-75
2022/07/28 04:05:44;;;;;;;1.50;1.40;;;16.40;99.90;;;;;;5054869;28;20650;-75
2022/07/28 04:08:10;;;;;;;2.70;1.70;;;16.30;99.90;;;;;;5073100;28;20628;-75
2022/07/28 04:10:37;;;;;;;1.70;1.60;;;16.40;99.90;;;;;;5072719;28;20644;-75
2022/07/28 04:13:04;;;;;;;3.40;1.63;;;16.40;99.90;;;;;;5072909;28;21155;-75
2022/07/28 04:15:31;;;;;;;6.13;2.00;;;16.30;99.90;;;;;;5072919;28;20606;-75
2022/07/28 04:17:58;;;;;;;11.07;1.50;;;16.40;99.90;;;;;;5072885;28;20589;-75
2022/07/28 04:20:26;;;;;;;2.30;1.80;;;16.40;99.90;;;;;;5073028;28;20564;-75
2022/07/28 04:22:53;;;;;;;3.00;1.40;;;16.40;99.90;;;;;;5072975;28;20557;-75
2022/07/28 04:25:22;;;;;;;1.40;1.30;;;16.30;99.90;;;;;;5072171;28;20616;-75
2022/07/28 04:27:50;;;;;;;4.70;2.00;;;16.30;99.90;;;;;;5073034;28;20966;-75
2022/07/28 04:30:20;;;;;;;2.70;1.43;;;16.30;99.90;;;;;;5072720;28;20622;-75
2022/07/28 04:32:49;;;;;;;1.57;1.47;;;16.30;99.90;;;;;;5072377;28;20969;-75
2022/07/28 04:35:16;;;;;;;2.93;1.53;;;16.30;99.90;;;;;;5072468;28;20630;-75
2022/07/28 04:37:44;;;;;;;1.70;1.57;;;16.30;99.90;;;;;;5071700;28;20570;-75
2022/07/28 04:40:12;;;;;;;3.03;1.57;;;16.40;99.90;;;;;;5072468;28;20778;-75
2022/07/28 04:42:39;;;;;;;4.63;1.83;;;16.40;99.90;;;;;;5072907;28;20947;-75
2022/07/28 04:45:23;;;;;;;1.97;1.83;;;16.40;99.90;;;;;;5073035;28;20526;-75
2022/07/28 04:47:50;;;;;;;3.40;1.63;;;16.40;99.90;;;;;;5072619;28;20586;-75
2022/07/28 04:50:20;;;;;;;3.60;1.60;;;16.40;99.90;;;;;;5072502;28;21109;-75
2022/07/28 04:52:49;;;;;;;5.47;1.73;;;16.40;99.90;;;;;;5072504;28;21260;-75
2022/07/28 04:55:16;;;;;;;1.63;1.53;;;16.50;99.90;;;;;;5072496;28;21067;-75
2022/07/28 04:57:43;;;;;;;1.40;1.30;;;16.60;99.90;;;;;;5071035;28;20619;-75
2022/07/28 05:00:12;;;;;;;3.17;1.70;;;16.60;99.90;;;;;;5072669;28;20569;-75
2022/07/28 05:02:44;;;;;;;2.90;1.80;;;16.60;99.90;;;;;;5071147;28;20962;-75
2022/07/28 05:05:11;;;;;;;2.33;2.00;;;16.60;99.90;;;;;;5070909;28;21277;-75
2022/07/28 05:07:38;;;;;;;2.60;1.53;;;16.70;99.90;;;;;;5072415;28;20643;-75
2022/07/28 05:10:07;;;;;;;7.00;2.20;;;16.70;99.90;;;;;;5072291;28;21162;-75
2022/07/28 05:12:33;;;;;;;3.00;1.43;;;16.70;99.90;;;;;;5072537;28;20553;-75
2022/07/28 05:15:00;;;;;;;2.70;1.70;;;16.80;99.90;;;;;;5072467;28;20715;-75
2022/07/28 05:17:26;;;;;;;1.40;1.27;;;16.90;99.90;;;;;;5072261;28;21117;-75
2022/07/28 05:19:53;;;;;;;4.30;1.40;;;17.00;99.90;;;;;;5072526;28;20583;-75
2022/07/28 05:22:19;;;;;;;2.60;1.60;;;17.00;99.90;;;;;;5072247;28;20598;-75
2022/07/28 05:24:45;;;;;;;2.13;2.00;;;17.00;99.90;;;;;;5072394;28;20646;-75
2022/07/28 05:27:12;;;;;;;4.40;1.80;;;17.00;99.90;;;;;;5072253;28;20613;-74
2022/07/28 05:29:40;;;;;;;5.50;2.00;;;17.10;99.90;;;;;;5072098;28;21137;-75
2022/07/28 05:32:07;;;;;;;2.20;1.80;;;17.30;99.90;;;;;;5072162;28;20549;-75
2022/07/28 05:34:34;;;;;;;4.37;1.67;;;17.60;99.90;;;;;;5072109;28;20648;-75
2022/07/28 05:37:01;;;;;;;5.00;1.73;;;17.40;99.90;;;;;;5073230;28;20667;-75
2022/07/28 05:39:31;;;;;;;4.70;1.50;;;17.40;99.90;;;;;;5075496;28;20645;-75
2022/07/28 05:41:59;;;;;;;1.70;1.60;;;17.30;99.90;;;;;;5075561;28;20574;-75
2022/07/28 05:44:25;;;;;;;2.80;1.60;;;17.40;99.90;;;;;;5075774;28;20646;-75
2022/07/28 05:46:52;;;;;;;7.43;1.77;;;17.20;99.90;;;;;;5075737;28;20579;-74
2022/07/28 05:49:18;;;;;;;1.93;1.60;;;17.40;99.90;;;;;;5075531;28;20585;-75
2022/07/28 05:51:45;;;;;;;2.70;1.50;;;17.40;99.90;;;;;;5075769;28;20577;-75
2022/07/28 05:54:12;;;;;;;6.60;1.80;;;17.50;99.90;;;;;;5075231;28;20634;-75
2022/07/28 05:56:39;;;;;;;7.47;1.70;;;17.30;99.90;;;;;;5075523;28;20570;-75
2022/07/28 05:59:08;;;;;;;3.13;1.63;;;17.40;99.90;;;;;;5076388;28;20583;-73
2022/07/28 06:01:37;;;;;;;2.60;1.40;;;17.70;99.90;;;;;;5061488;28;20610;-73
2022/07/28 06:04:03;;;;;;;2.03;1.43;;;17.80;99.90;;;;;;5077869;28;20655;-73
2022/07/28 06:06:30;;;;;;;5.90;1.60;;;17.90;99.90;;;;;;5081745;28;20715;-72
2022/07/28 06:08:56;;;;;;;6.07;2.93;;;18.00;99.90;;;;;;5084531;28;20583;-71
2022/07/28 06:11:23;;;;;;;1.87;1.50;;;18.00;99.90;;;;;;5085212;28;20582;-72
2022/07/28 06:13:51;;;;;;;4.60;1.60;;;18.00;99.90;;;;;;5080384;28;21020;-71
2022/07/28 06:16:19;;;;;;;3.17;1.47;;;18.00;99.90;;;;;;5085683;28;20617;-71
2022/07/28 06:18:45;;;;;;;7.23;1.87;;;17.90;99.90;;;;;;5078950;28;20686;-74
2022/07/28 06:21:12;;;;;;;3.80;1.57;;;18.20;99.90;;;;;;5076313;28;20660;-74
2022/07/28 06:23:39;;;;;;;4.40;2.13;;;18.50;99.90;;;;;;5075335;28;20657;-74
2022/07/28 06:26:05;;;;;;;2.43;1.53;;;18.40;99.90;;;;;;5073321;28;20618;-75
2022/07/28 06:28:32;;;;;;;2.13;2.00;;;18.60;99.90;;;;;;5074804;28;20582;-74
2022/07/28 06:30:58;;;;;;;7.53;1.90;;;18.60;99.90;;;;;;5073253;28;20618;-73
2022/07/28 06:33:27;;;;;;;2.47;2.00;;;18.70;99.90;;;;;;5078231;28;20578;-72
2022/07/28 06:35:55;;;;;;;1.70;1.60;;;18.70;99.90;;;;;;5084250;28;20630;-73
2022/07/28 06:38:21;;;;;;;2.93;1.70;;;18.70;99.90;;;;;;5083693;28;20585;-71
2022/07/28 06:40:48;;;;;;;3.10;1.60;;;18.90;99.90;;;;;;5085415;28;21128;-71
2022/07/28 06:43:14;;;;;;;2.67;2.10;;;19.20;99.90;;;;;;5087352;28;20639;-71
2022/07/28 06:45:41;;;;;;;3.83;1.80;;;19.50;99.90;;;;;;5084302;28;20590;-71
2022/07/28 06:48:07;;;;;;;3.20;1.70;;;19.50;99.90;;;;;;5081051;28;20977;-74
2022/07/28 06:50:34;;;;;;;2.40;1.90;;;19.90;99.90;;;;;;5079489;28;20630;-74
2022/07/28 06:53:01;;;;;;;3.43;1.63;;;20.20;99.90;;;;;;5076503;28;20566;-75
2022/07/28 06:55:27;;;;;;;6.33;1.97;;;20.30;99.90;;;;;;5075232;28;21261;-74
2022/07/28 06:57:54;;;;;;;3.20;2.23;;;20.30;99.90;;;;;;5074283;28;20606;-74
2022/07/28 07:00:20;;;;;;;6.97;2.03;;;20.40;99.90;;;;;;5075882;28;20651;-75
2022/07/28 07:02:47;;;;;;;2.67;1.73;;;20.50;99.90;;;;;;5078778;28;20575;-74
2022/07/28 07:05:14;;;;;;;7.33;1.70;;;20.40;99.90;;;;;;5077752;28;20658;-75
2022/07/28 07:07:41;;;;;;;4.40;1.70;;;20.30;99.90;;;;;;5076604;28;20632;-72
2022/07/28 07:10:08;;;;;;;2.00;1.80;;;20.40;99.90;;;;;;5077382;28;20670;-75
2022/07/28 07:12:35;;;;;;;4.30;1.60;;;20.20;99.90;;;;;;5077369;28;20673;-76
2022/07/28 07:15:03;;;;;;;2.67;1.70;;;20.40;99.90;;;;;;5077588;28;20757;-75
2022/07/28 07:17:29;;;;;;;2.80;2.10;;;20.30;99.90;;;;;;5081505;28;20731;-76
2022/07/28 07:19:56;;;;;;;3.20;1.80;;;20.40;99.90;;;;;;5077097;28;20578;-76
2022/07/28 07:22:22;;;;;;;4.43;1.77;;;20.50;99.90;;;;;;5078139;28;20772;-73
2022/07/28 07:24:48;;;;;;;1.80;1.50;;;20.50;99.90;;;;;;5080927;28;20764;-74
2022/07/28 07:27:15;;;;;;;5.93;2.00;;;20.40;99.90;;;;;;5079808;28;20578;-74
2022/07/28 07:29:41;;;;;;;4.87;1.83;;;20.30;99.90;;;;;;5077497;28;20710;-74
2022/07/28 07:32:08;;;;;;;10.00;2.43;;;20.50;99.90;;;;;;5074312;28;21122;-73
2022/07/28 07:34:34;;;;;;;2.03;1.90;;;20.80;99.90;;;;;;5074069;28;20634;-76
2022/07/28 07:37:01;;;;;;;7.30;2.63;;;20.80;99.90;;;;;;5074029;28;20606;-72
2022/07/28 07:39:27;;;;;;;5.97;1.80;;;20.90;99.90;;;;;;5071688;28;20633;-75
2022/07/28 07:41:54;;;;;;;8.97;2.57;;;21.20;99.90;;;;;;5074837;28;20605;-73
2022/07/28 07:44:20;;;;;;;3.73;2.10;;;21.30;99.90;;;;;;5075669;28;20983;-75
2022/07/28 07:46:46;;;;;;;2.43;2.27;;;21.10;99.90;;;;;;5075844;28;20575;-72
2022/07/28 07:49:15;;;;;;;8.23;1.87;;;21.00;99.90;;;;;;5075134;28;20606;-76
2022/07/28 07:51:42;;;;;;;4.17;2.10;;;21.40;99.90;;;;;;5073793;28;20592;-74
2022/07/28 07:54:08;;;;;;;5.33;2.13;;;21.60;99.90;;;;;;5078062;28;20700;-75
2022/07/28 07:56:34;;;;;;;6.67;2.43;;;21.50;99.90;;;;;;5076064;28;20571;-75
2022/07/28 07:59:01;;;;;;;3.83;1.97;;;21.40;99.90;;;;;;5079410;28;20610;-75
2022/07/28 08:01:27;;;;;;;4.43;2.20;;;21.60;99.90;;;;;;5079418;28;20768;-78
2022/07/28 08:03:54;;;;;;;6.33;2.20;;;21.70;99.90;;;;;;5076275;28;20583;-75
2022/07/28 08:06:20;;;;;;;6.97;2.13;;;21.70;99.90;;;;;;5074873;28;20712;-76
2022/07/28 08:08:46;;;;;;;3.77;2.20;;;21.70;99.90;;;;;;5075069;28;20566;-76
2022/07/28 08:11:13;;;;;;;5.00;1.90;;;21.80;99.90;;;;;;5073813;28;20587;-75
2022/07/28 08:13:39;;;;;;;7.37;2.40;;;21.70;99.90;;;;;;5074891;28;21124;-73
2022/07/28 08:16:06;;;;;;;4.90;2.60;;;21.90;99.90;;;;;;5076624;28;20660;-75
2022/07/28 08:18:32;;;;;;;8.87;2.40;;;22.00;99.90;;;;;;5074303;28;20625;-77
2022/07/28 08:20:59;;;;;;;4.40;2.37;;;22.00;99.90;;;;;;5072204;28;20582;-72
2022/07/28 08:23:25;;;;;;;6.77;2.47;;;22.20;99.90;;;;;;5073132;28;20575;-72
2022/07/28 08:25:52;;;;;;;3.83;2.17;;;22.20;99.90;;;;;;5072765;28;20675;-73
2022/07/28 08:28:18;;;;;;;5.63;1.97;;;22.20;99.90;;;;;;5072662;28;20629;-74
2022/07/28 08:30:45;;;;;;;7.30;2.30;;;22.60;99.90;;;;;;5072640;28;20635;-73
2022/07/28 08:33:11;;;;;;;3.83;2.37;;;22.60;99.90;;;;;;5073000;28;20618;-72
2022/07/28 08:35:38;;;;;;;6.07;2.47;;;22.80;99.90;;;;;;5072894;28;20630;-73
2022/07/28 08:38:05;;;;;;;6.63;3.10;;;23.00;99.90;;;;;;5072825;28;21017;-72
2022/07/28 08:40:35;;;;;;;4.10;2.77;;;23.10;99.90;;;;;;5072560;28;20586;-73
2022/07/28 08:43:33;;;;;;;5.27;2.90;;;23.10;99.90;;;;;;5073009;28;21007;-76
2022/07/28 08:46:03;;;;;;;15.33;3.90;;;22.70;99.90;;;;;;5072099;28;20990;-74
2022/07/28 08:48:32;;;;;;;4.47;2.67;;;22.80;99.90;;;;;;5072932;28;20571;-74
2022/07/28 08:51:10;;;;;;;13.37;3.03;;;23.00;99.90;;;;;;5072507;28;20562;-76
2022/07/28 08:53:38;;;;;;;7.07;3.00;;;23.10;99.90;;;;;;5073121;28;20618;-74
2022/07/28 08:56:15;;;;;;;7.63;2.73;;;22.90;99.90;;;;;;5072503;28;20657;-76
2022/07/28 08:58:42;;;;;;;10.90;2.57;;;23.20;99.90;;;;;;5072674;28;20614;-77
2022/07/28 09:01:09;;;;;;;4.50;2.50;;;23.40;99.90;;;;;;5072551;28;20582;-75
2022/07/28 09:03:37;;;;;;;9.67;2.67;;;23.80;99.90;;;;;;5072977;28;20574;-75
2022/07/28 09:06:04;;;;;;;8.40;3.43;;;24.00;99.90;;;;;;5072261;28;20654;-75
2022/07/28 09:08:30;;;;;;;5.87;2.63;;;24.10;99.90;;;;;;5072779;28;20636;-75
2022/07/28 09:10:57;;;;;;;3.53;2.83;;;24.10;99.90;;;;;;5073401;28;21329;-76
2022/07/28 09:13:23;;;;;;;9.27;3.00;;;24.20;99.90;;;;;;5076334;28;20661;-75
2022/07/28 09:15:50;;;;;;;4.33;3.10;;;24.20;99.90;;;;;;5076148;28;20630;-74
2022/07/28 09:18:17;;;;;;;5.90;3.30;;;24.50;99.90;;;;;;5076345;28;20626;-75
2022/07/28 09:20:44;;;;;;;9.30;3.73;;;24.60;99.90;;;;;;5076329;28;20631;-74
2022/07/28 09:23:12;;;;;;;7.07;3.40;;;24.30;99.90;;;;;;5076391;28;20667;-75
2022/07/28 09:25:38;;;;;;;6.10;3.30;;;24.40;99.90;;;;;;5076206;28;21002;-73
2022/07/28 09:28:09;;;;;;;4.73;3.30;;;24.60;99.90;;;;;;5076258;28;20562;-72
2022/07/28 09:30:48;;;;;;;10.67;4.00;;;24.60;99.90;;;;;;5076895;28;20962;-78
2022/07/28 09:33:26;;;;;;;7.03;3.60;;;24.90;99.90;;;;;;5075075;28;21164;-75
2022/07/28 09:35:55;;;;;;;6.57;3.60;;;24.60;99.90;;;;;;5076222;28;20998;-77
2022/07/28 09:38:24;;;;;;;3.50;3.30;;;24.90;99.90;;;;;;5076029;28;20629;-76
2022/07/28 09:40:59;;;;;;;5.03;3.40;;;25.40;99.90;;;;;;5075953;28;20614;-76
2022/07/28 09:43:43;;;;;;;9.47;4.00;;;25.60;99.90;;;;;;5076371;28;20585;-74
2022/07/28 09:46:12;;;;;;;3.43;3.13;;;25.30;99.90;;;;;;5075739;28;20586;-72
2022/07/28 09:48:58;;;;;;;7.63;3.70;;;25.80;99.90;;;;;;5075513;28;21151;-72
2022/07/28 09:51:31;;;;;;;4.50;3.20;;;25.80;99.90;;;;;;5075568;28;20593;-73
2022/07/28 09:54:16;;;;;;;9.57;3.47;;;25.80;99.90;;;;;;5075382;28;20682;-72
2022/07/28 09:56:44;;;;;;;5.33;3.70;;;26.40;99.90;;;;;;5075541;28;20666;-72
2022/07/28 09:59:12;;;;;;;9.37;3.73;;;26.50;99.90;;;;;;5075469;28;20574;-72
2022/07/28 10:01:56;;;;;;;7.33;4.20;;;26.60;99.90;;;;;;5075205;28;20584;-72
2022/07/28 10:04:34;;;;;;;4.53;3.93;;;26.30;99.90;;;;;;5075122;28;20786;-72
2022/07/28 10:07:10;;;;;;;5.17;4.37;;;26.10;99.90;;;;;;5075397;28;20601;-72
2022/07/28 10:09:38;;;;;;;15.10;4.90;;;25.60;99.90;;;;;;5075359;28;20613;-72
2022/07/28 10:12:17;;;;;;;4.77;3.30;;;25.50;99.90;;;;;;5074932;28;21166;-72
2022/07/28 10:14:45;;;;;;;8.40;3.50;;;25.80;99.90;;;;;;5074785;28;20992;-72
2022/07/28 10:17:28;;;;;;;4.27;3.73;;;26.10;99.90;;;;;;5074893;28;21003;-72
2022/07/28 10:19:57;;;;;;;7.07;4.10;;;25.60;99.90;;;;;;5074965;28;20574;-72
2022/07/28 10:22:32;;;;;;;5.60;3.90;;;25.70;99.90;;;;;;5074463;28;20621;-73
2022/07/28 10:25:01;;;;;;;9.47;4.70;;;25.80;99.90;;;;;;5074959;28;21053;-73
2022/07/28 10:27:28;;;;;;;4.67;4.27;;;25.90;99.90;;;;;;5075094;28;20626;-73
2022/07/28 10:30:00;;;;;;;12.33;4.97;;;26.10;99.90;;;;;;5075086;28;20595;-73
2022/07/28 10:32:30;;;;;;;7.60;4.47;;;26.00;99.90;;;;;;5074935;28;20614;-73
2022/07/28 10:35:04;;;;;;;5.97;4.53;;;26.30;99.90;;;;;;5075046;28;20635;-71
2022/07/28 10:37:36;;;;;;;5.17;4.30;;;26.30;99.90;;;;;;5074459;28;20973;-72
2022/07/28 10:40:05;;;;;;;4.47;4.13;;;26.30;99.90;;;;;;5074818;28;20582;-73
2022/07/28 10:42:33;;;;;;;8.20;4.20;;;26.60;99.90;;;;;;5074439;28;20575;-72
2022/07/28 10:45:02;;;;;;;7.97;3.80;;;26.80;99.90;;;;;;5074724;28;20610;-72
2022/07/28 10:47:28;;;;;;;5.10;4.47;;;26.80;99.90;;;;;;5074122;28;20617;-73
2022/07/28 10:49:55;;;;;;;7.70;4.30;;;27.20;99.90;;;;;;5074599;28;20575;-72
2022/07/28 10:52:23;;;;;;;4.47;4.03;;;27.60;99.90;;;;;;5074137;28;20577;-72
2022/07/28 10:55:14;;;;;;;4.53;4.13;;;27.50;99.90;;;;;;5074201;28;20629;-71
2022/07/28 10:58:15;;;;;;;5.50;4.17;;;27.70;99.90;;;;;;5073969;28;20618;-71
2022/07/28 11:00:59;;;;;;;4.40;4.00;;;27.90;99.90;;;;;;5073949;28;20589;-71
2022/07/28 11:03:42;;;;;;;6.50;4.20;;;27.50;99.90;;;;;;5072935;28;20574;-71
2022/07/28 11:06:28;;;;;;;5.87;4.10;;;27.80;99.90;;;;;;5073522;28;20657;-71
2022/07/28 11:08:57;;;;;;;6.63;5.00;;;28.10;99.90;;;;;;5073674;28;21203;-73
2022/07/28 11:11:51;;;;;;;3.80;3.50;;;28.00;99.90;;;;;;5073119;28;20801;-71
2022/07/28 11:14:23;;;;;;;4.80;4.40;;;28.40;99.90;;;;;;5073834;28;20671;-72
2022/07/28 11:17:10;;;;;;;4.17;3.83;;;28.60;99.90;;;;;;5073762;28;20710;-72
2022/07/28 11:19:43;;;;;;;5.90;3.93;;;28.30;99.90;;;;;;5074016;28;20963;-73
2022/07/28 11:22:20;;;;;;;4.73;4.00;;;28.50;99.90;;;;;;5073334;28;21152;-72
2022/07/28 11:24:56;;;;;;;5.53;3.80;;;28.20;99.90;;;;;;5073386;28;20638;-73
2022/07/28 11:27:53;;;;;;;6.00;3.47;;;29.40;99.90;;;;;;5073684;28;20643;-73
2022/07/28 11:30:26;;;;;;;4.30;3.67;;;29.70;99.90;;;;;;5070818;28;20691;-72
2022/07/28 11:32:52;;;;;;;3.87;3.63;;;29.90;99.90;;;;;;5073334;28;20622;-73
2022/07/28 11:35:20;;;;;;;4.80;4.40;;;28.80;99.90;;;;;;5072505;28;20699;-73
2022/07/28 11:38:16;;;;;;;5.63;4.17;;;28.90;99.90;;;;;;5073394;28;20968;-73
2022/07/28 11:40:43;;;;;;;8.77;4.20;;;29.00;99.90;;;;;;5068838;28;20702;-73
2022/07/28 11:43:22;;;;;;;3.57;3.40;;;29.40;99.90;;;;;;5073388;28;20617;-72
2022/07/28 11:46:13;;;;;;;4.23;3.83;;;29.10;99.90;;;;;;5071749;28;20638;-72
2022/07/28 11:48:43;;;;;;;5.03;4.63;;;29.30;99.90;;;;;;5072914;28;20622;-73
2022/07/28 11:51:11;;;;;;;4.33;3.90;;;30.20;99.90;;;;;;5073351;28;20582;-73
2022/07/28 11:53:43;;;;;;;4.43;4.07;;;30.50;99.90;;;;;;5072805;28;21168;-73
2022/07/28 11:56:14;;;;;;;9.13;3.83;;;30.20;99.90;;;;;;5072806;28;20988;-72
2022/07/28 11:58:42;;;;;;;6.10;3.37;;;30.20;99.90;;;;;;5073059;28;20574;-73
2022/07/28 12:01:19;;;;;;;4.67;3.90;;;30.40;99.90;;;;;;5073212;28;20594;-73
2022/07/28 12:03:48;;;;;;;4.00;3.70;;;31.50;99.90;;;;;;5073161;28;20571;-73
2022/07/28 12:06:14;;;;;;;14.20;4.40;;;31.60;99.90;;;;;;5073006;28;21211;-73
2022/07/28 12:09:02;;;;;;;4.40;3.90;;;31.60;99.90;;;;;;5073176;28;20586;-73
2022/07/28 12:11:34;;;;;;;6.20;4.17;;;31.70;99.90;;;;;;5072840;28;20700;-73
2022/07/28 12:14:01;;;;;;;4.43;3.60;;;30.80;99.90;;;;;;5073024;28;20570;-73
2022/07/28 12:16:29;;;;;;;5.00;3.70;;;31.20;99.90;;;;;;5072929;28;20726;-73
2022/07/28 12:18:56;;;;;;;4.73;4.30;;;31.40;99.90;;;;;;5073232;28;20635;-73
2022/07/28 12:21:40;;;;;;;10.37;4.20;;;31.10;99.90;;;;;;5071744;28;20622;-73
2022/07/28 12:24:10;;;;;;;5.67;4.30;;;31.60;99.90;;;;;;5072891;28;20727;-74
2022/07/28 12:26:38;;;;;;;5.97;3.90;;;32.40;99.90;;;;;;5072810;28;20946;-74
2022/07/28 12:29:05;;;;;;;4.17;3.77;;;31.30;99.90;;;;;;5072994;28;20575;-74
2022/07/28 12:31:32;;;;;;;5.57;4.00;;;30.40;99.90;;;;;;5073030;28;20575;-73
2022/07/28 12:34:00;;;;;;;6.13;3.50;;;30.00;99.90;;;;;;5073236;28;21085;-73
2022/07/28 12:36:28;;;;;;;4.70;4.23;;;31.20;99.90;;;;;;5071269;28;21069;-73
2022/07/28 12:38:55;;;;;;;5.53;4.03;;;31.70;99.90;;;;;;5072945;28;20559;-73
2022/07/28 12:41:21;;;;;;;4.17;3.83;;;31.20;99.90;;;;;;5073165;28;20618;-73
2022/07/28 12:43:52;;;;;;;4.43;4.13;;;31.40;99.90;;;;;;5072963;28;20583;-73
2022/07/28 12:46:24;;;;;;;7.73;4.43;;;31.80;99.90;;;;;;5073084;28;21116;-74
2022/07/28 12:48:52;;;;;;;7.00;4.57;;;32.30;99.90;;;;;;5076700;28;20575;-74
2022/07/28 12:51:39;;;;;;;5.00;4.40;;;31.40;99.90;;;;;;5076533;28;20618;-74
2022/07/28 12:54:07;;;;;;;4.17;3.90;;;31.60;99.90;;;;;;5076660;28;20624;-73
2022/07/28 12:56:51;;;;;;;4.10;3.77;;;31.80;99.90;;;;;;5076927;28;20994;-73
2022/07/28 12:59:19;;;;;;;4.40;4.00;;;31.70;99.90;;;;;;5076265;28;20610;-72
2022/07/28 13:01:50;;;;;;;5.23;4.73;;;31.70;99.90;;;;;;5076691;28;20625;-72